Terminal Aerodrome Forecast
Issued by NWS

Home | Current Version | Previous Version | Text Only | Print | Product List | Glossary On
Versions: 1 2 3 4 5 6 7 8 9 10 11 12 13 14 15 16
000
FTUS46 KMFR 010526
TAFOTH
TAF
KOTH 010526Z 0106/0206 VRB03KT P6SM SKC
     FM011000 14004KT P6SM BKN090
     FM011900 26008KT P6SM SCT040 OVC060
     FM012200 26010KT P6SM -RA BKN025 OVC035
     FM020300 23004KT 4SM -RA BR OVC015=

USA.gov is the U.S. government's official web portal to all federal, state and local government web resources and services.